sensor_id;sensor_type;location;lat;lon;timestamp;pressure;altitude;pressure_sealevel;temperature;humidity
22000;BME280;11164;48.818;2.322;2023-03-11T00:01:47;99866.56;;;8.98;38.35
22000;BME280;11164;48.818;2.322;2023-03-11T00:04:13;99876.06;;;8.87;38.18
22000;BME280;11164;48.818;2.322;2023-03-11T00:06:38;99892.63;;;8.97;37.87
22000;BME280;11164;48.818;2.322;2023-03-11T00:09:04;99903.56;;;8.89;38.45
22000;BME280;11164;48.818;2.322;2023-03-11T00:11:29;99916.00;;;8.97;38.31
22000;BME280;11164;48.818;2.322;2023-03-11T00:13:54;99913.09;;;9.12;37.85
22000;BME280;11164;48.818;2.322;2023-03-11T00:16:20;99924.91;;;9.11;37.91
22000;BME280;11164;48.818;2.322;2023-03-11T00:18:49;99920.78;;;9.15;38.04
22000;BME280;11164;48.818;2.322;2023-03-11T00:21:16;99916.63;;;9.19;38.03
22000;BME280;11164;48.818;2.322;2023-03-11T00:23:42;99912.50;;;9.16;38.11
22000;BME280;11164;48.818;2.322;2023-03-11T00:26:07;99899.06;;;9.16;37.77
22000;BME280;11164;48.818;2.322;2023-03-11T00:28:33;99889.31;;;9.15;37.84
22000;BME280;11164;48.818;2.322;2023-03-11T00:30:58;99888.28;;;9.16;38.01
22000;BME280;11164;48.818;2.322;2023-03-11T00:33:24;99882.91;;;9.16;37.99
22000;BME280;11164;48.818;2.322;2023-03-11T00:35:49;99896.34;;;9.16;37.93
22000;BME280;11164;48.818;2.322;2023-03-11T00:38:16;99904.63;;;9.08;37.97
22000;BME280;11164;48.818;2.322;2023-03-11T00:40:43;99906.88;;;8.91;38.20
22000;BME280;11164;48.818;2.322;2023-03-11T00:43:08;99888.06;;;8.91;38.20
22000;BME280;11164;48.818;2.322;2023-03-11T00:45:34;99892.81;;;8.96;38.00
22000;BME280;11164;48.818;2.322;2023-03-11T00:47:59;99886.41;;;8.90;38.50
22000;BME280;11164;48.818;2.322;2023-03-11T00:50:28;99881.88;;;8.97;38.19
22000;BME280;11164;48.818;2.322;2023-03-11T00:52:54;99874.00;;;8.89;38.27
22000;BME280;11164;48.818;2.322;2023-03-11T00:55:25;99876.44;;;8.77;38.16
22000;BME280;11164;48.818;2.322;2023-03-11T00:57:52;99872.94;;;8.70;38.53
22000;BME280;11164;48.818;2.322;2023-03-11T01:00:19;99873.34;;;8.74;38.31
22000;BME280;11164;48.818;2.322;2023-03-11T01:02:45;99878.72;;;8.74;38.48
22000;BME280;11164;48.818;2.322;2023-03-11T01:05:11;99894.88;;;8.80;38.44
22000;BME280;11164;48.818;2.322;2023-03-11T01:07:37;99895.69;;;8.81;38.14
22000;BME280;11164;48.818;2.322;2023-03-11T01:10:04;99911.56;;;8.56;38.62
22000;BME280;11164;48.818;2.322;2023-03-11T01:12:29;99928.53;;;8.63;38.13
22000;BME280;11164;48.818;2.322;2023-03-11T01:14:55;99906.84;;;8.65;38.26
22000;BME280;11164;48.818;2.322;2023-03-11T01:17:20;99903.94;;;8.66;38.21
22000;BME280;11164;48.818;2.322;2023-03-11T01:19:47;99897.34;;;8.75;37.96
22000;BME280;11164;48.818;2.322;2023-03-11T01:22:12;99889.91;;;8.77;38.08
22000;BME280;11164;48.818;2.322;2023-03-11T01:24:38;99887.41;;;8.62;38.36
22000;BME280;11164;48.818;2.322;2023-03-11T01:27:03;99890.13;;;8.76;38.11
22000;BME280;11164;48.818;2.322;2023-03-11T01:29:28;99907.06;;;8.76;37.78
22000;BME280;11164;48.818;2.322;2023-03-11T01:31:54;99911.41;;;8.77;37.80
22000;BME280;11164;48.818;2.322;2023-03-11T01:34:19;99882.03;;;8.82;37.83
22000;BME280;11164;48.818;2.322;2023-03-11T01:36:44;99876.88;;;8.88;37.63
22000;BME280;11164;48.818;2.322;2023-03-11T01:39:10;99901.06;;;8.81;37.90
22000;BME280;11164;48.818;2.322;2023-03-11T01:41:35;99919.22;;;8.59;38.17
22000;BME280;11164;48.818;2.322;2023-03-11T01:44:00;99920.06;;;8.66;38.06
22000;BME280;11164;48.818;2.322;2023-03-11T01:49:19;99914.69;;;8.66;38.15
22000;BME280;11164;48.818;2.322;2023-03-11T01:51:48;99905.59;;;8.74;37.96
22000;BME280;11164;48.818;2.322;2023-03-11T01:56:45;99884.09;;;8.74;37.83
22000;BME280;11164;48.818;2.322;2023-03-11T01:59:13;99906.97;;;8.50;38.16
22000;BME280;11164;48.818;2.322;2023-03-11T02:04:40;99917.75;;;8.56;38.05
22000;BME280;11164;48.818;2.322;2023-03-11T02:07:07;99917.59;;;8.65;38.01
22000;BME280;11164;48.818;2.322;2023-03-11T02:09:33;99909.13;;;8.68;37.71
22000;BME280;11164;48.818;2.322;2023-03-11T02:11:59;99921.75;;;8.80;37.82
22000;BME280;11164;48.818;2.322;2023-03-11T02:14:26;99919.25;;;8.79;37.71
22000;BME280;11164;48.818;2.322;2023-03-11T02:16:54;99925.88;;;8.76;37.82
22000;BME280;11164;48.818;2.322;2023-03-11T02:22:11;99931.47;;;8.81;37.30
22000;BME280;11164;48.818;2.322;2023-03-11T02:24:45;99934.31;;;8.67;37.90
22000;BME280;11164;48.818;2.322;2023-03-11T02:27:15;99914.50;;;8.68;37.56
22000;BME280;11164;48.818;2.322;2023-03-11T02:29:43;99916.13;;;8.69;37.69
22000;BME280;11164;48.818;2.322;2023-03-11T02:32:09;99917.16;;;8.61;37.76
22000;BME280;11164;48.818;2.322;2023-03-11T02:34:38;99924.84;;;8.77;37.78
22000;BME280;11164;48.818;2.322;2023-03-11T02:37:06;99921.56;;;8.82;37.38
22000;BME280;11164;48.818;2.322;2023-03-11T02:39:41;99911.94;;;8.46;38.24
22000;BME280;11164;48.818;2.322;2023-03-11T02:42:27;99904.09;;;8.51;37.92
22000;BME280;11164;48.818;2.322;2023-03-11T02:45:02;99889.03;;;8.57;37.97
22000;BME280;11164;48.818;2.322;2023-03-11T02:47:30;99873.34;;;8.60;38.07
22000;BME280;11164;48.818;2.322;2023-03-11T02:49:56;99874.75;;;8.56;37.83
22000;BME280;11164;48.818;2.322;2023-03-11T02:52:24;99867.69;;;8.35;38.13
22000;BME280;11164;48.818;2.322;2023-03-11T02:54:51;99874.13;;;8.48;37.91
22000;BME280;11164;48.818;2.322;2023-03-11T02:57:17;99874.34;;;8.53;38.00
22000;BME280;11164;48.818;2.322;2023-03-11T02:59:42;99887.56;;;8.54;37.89
22000;BME280;11164;48.818;2.322;2023-03-11T03:02:07;99893.94;;;8.40;38.27
22000;BME280;11164;48.818;2.322;2023-03-11T03:04:33;99915.78;;;8.23;38.25
22000;BME280;11164;48.818;2.322;2023-03-11T03:06:58;99905.75;;;8.46;38.21
22000;BME280;11164;48.818;2.322;2023-03-11T03:09:23;99905.31;;;8.42;37.92
22000;BME280;11164;48.818;2.322;2023-03-11T03:11:49;99894.16;;;8.38;38.33
22000;BME280;11164;48.818;2.322;2023-03-11T03:14:14;99908.56;;;8.31;38.51
22000;BME280;11164;48.818;2.322;2023-03-11T03:16:39;99885.03;;;8.33;38.12
22000;BME280;11164;48.818;2.322;2023-03-11T03:19:05;99893.78;;;8.48;38.06
22000;BME280;11164;48.818;2.322;2023-03-11T03:21:30;99887.97;;;8.38;38.37
22000;BME280;11164;48.818;2.322;2023-03-11T03:23:55;99885.47;;;8.36;38.15
22000;BME280;11164;48.818;2.322;2023-03-11T03:26:21;99884.66;;;8.42;38.27
22000;BME280;11164;48.818;2.322;2023-03-11T03:28:46;99866.63;;;8.30;38.64
22000;BME280;11164;48.818;2.322;2023-03-11T03:31:12;99861.63;;;8.20;38.70
22000;BME280;11164;48.818;2.322;2023-03-11T03:33:38;99856.06;;;8.21;38.54
22000;BME280;11164;48.818;2.322;2023-03-11T03:36:11;99851.47;;;8.02;39.14
22000;BME280;11164;48.818;2.322;2023-03-11T03:38:37;99860.13;;;8.04;39.05
22000;BME280;11164;48.818;2.322;2023-03-11T03:41:03;99852.09;;;8.11;38.87
22000;BME280;11164;48.818;2.322;2023-03-11T03:43:28;99855.63;;;8.11;38.79
22000;BME280;11164;48.818;2.322;2023-03-11T03:45:58;99857.88;;;8.08;39.26
22000;BME280;11164;48.818;2.322;2023-03-11T03:48:24;99868.88;;;8.19;38.96
22000;BME280;11164;48.818;2.322;2023-03-11T03:50:49;99870.31;;;8.22;38.61
22000;BME280;11164;48.818;2.322;2023-03-11T03:53:15;99870.72;;;8.12;39.03
22000;BME280;11164;48.818;2.322;2023-03-11T03:55:40;99873.94;;;8.01;39.17
22000;BME280;11164;48.818;2.322;2023-03-11T03:58:06;99883.03;;;8.00;39.25
22000;BME280;11164;48.818;2.322;2023-03-11T04:00:31;99898.97;;;8.08;39.38
22000;BME280;11164;48.818;2.322;2023-03-11T04:02:57;99904.75;;;8.05;39.29
22000;BME280;11164;48.818;2.322;2023-03-11T04:05:22;99878.13;;;8.17;39.34
22000;BME280;11164;48.818;2.322;2023-03-11T04:07:51;99901.97;;;8.33;38.55
22000;BME280;11164;48.818;2.322;2023-03-11T04:10:16;99907.00;;;8.43;38.95
22000;BME280;11164;48.818;2.322;2023-03-11T04:12:42;99901.19;;;8.39;39.08
22000;BME280;11164;48.818;2.322;2023-03-11T04:15:08;99888.19;;;8.43;38.81
22000;BME280;11164;48.818;2.322;2023-03-11T04:17:34;99898.09;;;8.49;38.96
22000;BME280;11164;48.818;2.322;2023-03-11T04:19:59;99895.69;;;8.13;39.42
22000;BME280;11164;48.818;2.322;2023-03-11T04:22:25;99893.38;;;8.03;39.56
22000;BME280;11164;48.818;2.322;2023-03-11T04:24:50;99899.78;;;8.02;39.74
22000;BME280;11164;48.818;2.322;2023-03-11T04:27:15;99885.50;;;7.95;39.90
22000;BME280;11164;48.818;2.322;2023-03-11T04:29:41;99880.53;;;7.92;40.04
22000;BME280;11164;48.818;2.322;2023-03-11T04:32:06;99886.31;;;7.95;39.51
22000;BME280;11164;48.818;2.322;2023-03-11T04:34:32;99891.41;;;7.90;39.93
22000;BME280;11164;48.818;2.322;2023-03-11T04:36:57;99896.78;;;7.90;39.69
22000;BME280;11164;48.818;2.322;2023-03-11T04:39:22;99908.81;;;7.94;39.98
22000;BME280;11164;48.818;2.322;2023-03-11T04:41:48;99911.34;;;8.02;39.62
22000;BME280;11164;48.818;2.322;2023-03-11T04:44:13;99909.28;;;7.98;39.92
22000;BME280;11164;48.818;2.322;2023-03-11T04:46:38;99913.28;;;8.15;39.70
22000;BME280;11164;48.818;2.322;2023-03-11T04:49:04;99923.63;;;7.90;39.83
22000;BME280;11164;48.818;2.322;2023-03-11T04:51:29;99927.84;;;7.99;39.81
22000;BME280;11164;48.818;2.322;2023-03-11T04:53:55;99927.00;;;7.99;39.63
22000;BME280;11164;48.818;2.322;2023-03-11T04:56:20;99919.22;;;8.11;39.60
22000;BME280;11164;48.818;2.322;2023-03-11T04:58:46;99921.03;;;7.97;40.18
22000;BME280;11164;48.818;2.322;2023-03-11T05:01:11;99924.34;;;7.99;39.98
22000;BME280;11164;48.818;2.322;2023-03-11T05:03:36;99930.50;;;7.93;39.78
22000;BME280;11164;48.818;2.322;2023-03-11T05:06:02;99930.56;;;8.06;39.67
22000;BME280;11164;48.818;2.322;2023-03-11T05:08:27;99920.88;;;8.05;39.39
22000;BME280;11164;48.818;2.322;2023-03-11T05:10:53;99903.03;;;7.97;39.78
22000;BME280;11164;48.818;2.322;2023-03-11T05:13:19;99915.97;;;7.87;40.18
22000;BME280;11164;48.818;2.322;2023-03-11T05:15:45;99927.22;;;7.97;39.67
22000;BME280;11164;48.818;2.322;2023-03-11T05:18:10;99933.88;;;8.08;39.57
22000;BME280;11164;48.818;2.322;2023-03-11T05:20:36;99934.75;;;8.15;39.66
22000;BME280;11164;48.818;2.322;2023-03-11T05:23:01;99939.38;;;7.93;39.83
22000;BME280;11164;48.818;2.322;2023-03-11T05:25:27;99937.16;;;8.03;39.56
22000;BME280;11164;48.818;2.322;2023-03-11T05:27:52;99928.16;;;8.18;39.55
22000;BME280;11164;48.818;2.322;2023-03-11T05:30:18;99932.06;;;8.22;39.63
22000;BME280;11164;48.818;2.322;2023-03-11T05:32:43;99929.31;;;8.02;39.82
22000;BME280;11164;48.818;2.322;2023-03-11T05:35:09;99933.38;;;7.91;40.27
22000;BME280;11164;48.818;2.322;2023-03-11T05:37:34;99940.28;;;8.07;39.86
22000;BME280;11164;48.818;2.322;2023-03-11T05:40:02;99946.09;;;8.11;39.53
22000;BME280;11164;48.818;2.322;2023-03-11T05:42:30;99941.03;;;7.94;39.96
22000;BME280;11164;48.818;2.322;2023-03-11T05:44:56;99947.09;;;8.10;39.69
22000;BME280;11164;48.818;2.322;2023-03-11T05:47:21;99954.09;;;8.04;39.94
22000;BME280;11164;48.818;2.322;2023-03-11T05:49:47;99958.16;;;7.93;40.36
22000;BME280;11164;48.818;2.322;2023-03-11T05:52:13;99954.25;;;7.96;40.09
22000;BME280;11164;48.818;2.322;2023-03-11T05:54:39;99962.28;;;8.31;39.44
22000;BME280;11164;48.818;2.322;2023-03-11T05:57:04;99960.72;;;8.43;39.41
22000;BME280;11164;48.818;2.322;2023-03-11T05:59:30;99962.88;;;8.19;39.68
22000;BME280;11164;48.818;2.322;2023-03-11T06:01:57;99950.34;;;7.98;40.25
22000;BME280;11164;48.818;2.322;2023-03-11T06:04:22;99949.84;;;7.88;40.59
22000;BME280;11164;48.818;2.322;2023-03-11T06:06:48;99955.28;;;7.95;40.50
22000;BME280;11164;48.818;2.322;2023-03-11T06:09:13;99952.00;;;7.99;40.45
22000;BME280;11164;48.818;2.322;2023-03-11T06:11:39;99958.38;;;7.92;40.39
22000;BME280;11164;48.818;2.322;2023-03-11T06:14:05;99968.19;;;7.84;40.71
22000;BME280;11164;48.818;2.322;2023-03-11T06:16:30;99964.97;;;7.67;40.82
22000;BME280;11164;48.818;2.322;2023-03-11T06:18:56;99962.59;;;7.51;41.44
22000;BME280;11164;48.818;2.322;2023-03-11T06:21:24;99965.78;;;7.68;41.01
22000;BME280;11164;48.818;2.322;2023-03-11T06:23:51;99961.34;;;7.75;40.77
22000;BME280;11164;48.818;2.322;2023-03-11T06:26:18;99964.03;;;7.75;40.60
22000;BME280;11164;48.818;2.322;2023-03-11T06:28:45;99966.09;;;7.80;40.59
22000;BME280;11164;48.818;2.322;2023-03-11T06:31:16;99969.59;;;8.02;39.95
22000;BME280;11164;48.818;2.322;2023-03-11T06:33:42;99972.94;;;8.11;39.79
22000;BME280;11164;48.818;2.322;2023-03-11T06:36:09;99968.63;;;7.88;40.65
22000;BME280;11164;48.818;2.322;2023-03-11T06:38:34;99974.09;;;7.73;40.92
22000;BME280;11164;48.818;2.322;2023-03-11T06:41:02;99977.25;;;7.83;40.59
22000;BME280;11164;48.818;2.322;2023-03-11T06:43:28;99976.84;;;8.08;40.29
22000;BME280;11164;48.818;2.322;2023-03-11T06:45:54;99980.88;;;8.26;40.00
22000;BME280;11164;48.818;2.322;2023-03-11T06:48:19;99973.75;;;8.11;39.95
22000;BME280;11164;48.818;2.322;2023-03-11T06:50:52;99964.56;;;7.92;40.60
22000;BME280;11164;48.818;2.322;2023-03-11T06:53:18;99962.16;;;8.04;40.31
22000;BME280;11164;48.818;2.322;2023-03-11T06:55:43;99972.81;;;8.26;40.00
22000;BME280;11164;48.818;2.322;2023-03-11T06:58:08;99976.41;;;8.39;39.95
22000;BME280;11164;48.818;2.322;2023-03-11T07:00:34;99975.66;;;8.59;39.75
22000;BME280;11164;48.818;2.322;2023-03-11T07:02:59;99970.88;;;8.54;39.79
22000;BME280;11164;48.818;2.322;2023-03-11T07:05:24;99984.16;;;8.62;39.97
22000;BME280;11164;48.818;2.322;2023-03-11T07:07:53;99991.81;;;8.72;40.06
22000;BME280;11164;48.818;2.322;2023-03-11T07:10:19;99994.50;;;8.66;39.84
22000;BME280;11164;48.818;2.322;2023-03-11T07:12:45;100007.78;;;8.80;39.82
22000;BME280;11164;48.818;2.322;2023-03-11T07:15:10;100006.09;;;8.73;39.92
22000;BME280;11164;48.818;2.322;2023-03-11T07:17:36;100004.16;;;8.60;40.47
22000;BME280;11164;48.818;2.322;2023-03-11T07:20:01;100014.94;;;8.67;40.19
22000;BME280;11164;48.818;2.322;2023-03-11T07:22:27;100017.28;;;8.76;40.41
22000;BME280;11164;48.818;2.322;2023-03-11T07:24:52;100013.75;;;8.82;40.16
22000;BME280;11164;48.818;2.322;2023-03-11T07:27:17;100021.81;;;8.69;40.54
22000;BME280;11164;48.818;2.322;2023-03-11T07:29:43;100021.75;;;8.62;40.39
22000;BME280;11164;48.818;2.322;2023-03-11T07:32:09;100031.47;;;8.63;40.59
22000;BME280;11164;48.818;2.322;2023-03-11T07:34:34;100041.66;;;8.75;40.67
22000;BME280;11164;48.818;2.322;2023-03-11T07:37:00;100040.66;;;8.76;40.47
22000;BME280;11164;48.818;2.322;2023-03-11T07:39:26;100042.19;;;8.98;40.16
22000;BME280;11164;48.818;2.322;2023-03-11T07:41:51;100049.63;;;9.03;40.10
22000;BME280;11164;48.818;2.322;2023-03-11T07:44:17;100052.34;;;9.10;39.87
22000;BME280;11164;48.818;2.322;2023-03-11T07:46:45;100051.50;;;9.03;40.00
22000;BME280;11164;48.818;2.322;2023-03-11T07:49:10;100068.22;;;8.98;39.92
22000;BME280;11164;48.818;2.322;2023-03-11T07:51:37;100061.44;;;9.09;39.99
22000;BME280;11164;48.818;2.322;2023-03-11T07:54:03;100048.41;;;9.06;40.08
22000;BME280;11164;48.818;2.322;2023-03-11T07:56:32;100040.72;;;9.03;40.16
22000;BME280;11164;48.818;2.322;2023-03-11T07:58:59;100033.94;;;9.13;40.20
22000;BME280;11164;48.818;2.322;2023-03-11T08:01:26;100022.16;;;9.14;39.81
22000;BME280;11164;48.818;2.322;2023-03-11T08:03:55;100037.88;;;9.11;40.13
22000;BME280;11164;48.818;2.322;2023-03-11T08:06:24;100045.09;;;9.10;39.99
22000;BME280;11164;48.818;2.322;2023-03-11T08:08:50;100057.81;;;9.36;39.63
22000;BME280;11164;48.818;2.322;2023-03-11T08:11:17;100062.59;;;9.68;39.25
22000;BME280;11164;48.818;2.322;2023-03-11T08:13:43;100059.13;;;9.81;39.23
22000;BME280;11164;48.818;2.322;2023-03-11T08:16:12;100064.28;;;9.69;39.19
22000;BME280;11164;48.818;2.322;2023-03-11T08:18:38;100064.28;;;9.96;39.25
22000;BME280;11164;48.818;2.322;2023-03-11T08:21:08;100065.94;;;9.97;39.52
22000;BME280;11164;48.818;2.322;2023-03-11T08:23:34;100067.41;;;9.99;39.29
22000;BME280;11164;48.818;2.322;2023-03-11T08:26:09;100068.44;;;9.98;39.15
22000;BME280;11164;48.818;2.322;2023-03-11T08:28:35;100060.97;;;10.00;39.52
22000;BME280;11164;48.818;2.322;2023-03-11T08:31:01;100066.16;;;9.95;39.21
22000;BME280;11164;48.818;2.322;2023-03-11T08:33:26;100063.25;;;9.97;39.39
22000;BME280;11164;48.818;2.322;2023-03-11T08:35:53;100075.28;;;9.94;39.40
22000;BME280;11164;48.818;2.322;2023-03-11T08:38:18;100064.91;;;9.84;39.46
22000;BME280;11164;48.818;2.322;2023-03-11T08:40:44;100045.22;;;9.97;39.28
22000;BME280;11164;48.818;2.322;2023-03-11T08:43:13;100037.53;;;10.14;38.98
22000;BME280;11164;48.818;2.322;2023-03-11T08:45:40;100042.53;;;10.10;38.91
22000;BME280;11164;48.818;2.322;2023-03-11T08:48:08;100046.44;;;10.28;38.77
22000;BME280;11164;48.818;2.322;2023-03-11T08:50:34;100050.34;;;10.45;38.56
22000;BME280;11164;48.818;2.322;2023-03-11T08:53:00;100074.13;;;10.75;37.67
22000;BME280;11164;48.818;2.322;2023-03-11T08:55:28;100074.19;;;10.62;38.27
22000;BME280;11164;48.818;2.322;2023-03-11T08:57:54;100079.78;;;10.60;38.26
22000;BME280;11164;48.818;2.322;2023-03-11T09:00:20;100071.28;;;10.43;38.29
22000;BME280;11164;48.818;2.322;2023-03-11T09:02:46;100078.16;;;10.19;38.68
22000;BME280;11164;48.818;2.322;2023-03-11T09:05:12;100087.25;;;10.31;38.61
22000;BME280;11164;48.818;2.322;2023-03-11T09:07:38;100081.47;;;10.35;38.53
22000;BME280;11164;48.818;2.322;2023-03-11T09:10:04;100089.94;;;10.31;38.46
22000;BME280;11164;48.818;2.322;2023-03-11T09:12:30;100076.91;;;10.28;38.54
22000;BME280;11164;48.818;2.322;2023-03-11T09:14:55;100085.16;;;10.40;38.48
22000;BME280;11164;48.818;2.322;2023-03-11T09:17:21;100057.59;;;10.58;38.08
22000;BME280;11164;48.818;2.322;2023-03-11T09:19:46;100068.13;;;11.18;37.52
22000;BME280;11164;48.818;2.322;2023-03-11T09:22:12;100064.25;;;11.07;37.43
22000;BME280;11164;48.818;2.322;2023-03-11T09:24:38;100073.34;;;11.13;37.39
22000;BME280;11164;48.818;2.322;2023-03-11T09:27:03;100072.75;;;11.04;37.54
22000;BME280;11164;48.818;2.322;2023-03-11T09:29:29;100071.56;;;11.00;37.64
22000;BME280;11164;48.818;2.322;2023-03-11T09:31:55;100070.09;;;10.98;37.73
22000;BME280;11164;48.818;2.322;2023-03-11T09:34:20;100066.84;;;11.28;37.06
22000;BME280;11164;48.818;2.322;2023-03-11T09:36:46;100066.53;;;11.42;36.97
22000;BME280;11164;48.818;2.322;2023-03-11T09:39:12;100069.47;;;11.41;36.79
22000;BME280;11164;48.818;2.322;2023-03-11T09:41:45;100060.88;;;11.51;36.51
22000;BME280;11164;48.818;2.322;2023-03-11T09:44:36;100066.03;;;11.59;34.00
22000;BME280;11164;48.818;2.322;2023-03-11T09:58:11;100056.63;;;11.93;36.11
22000;BME280;11164;48.818;2.322;2023-03-11T10:00:38;100061.78;;;12.02;36.19
22000;BME280;11164;48.818;2.322;2023-03-11T10:03:06;100069.66;;;11.78;36.36
22000;BME280;11164;48.818;2.322;2023-03-11T10:05:37;100082.72;;;11.49;36.83
22000;BME280;11164;48.818;2.322;2023-03-11T10:10:43;100062.16;;;11.10;36.30
22000;BME280;11164;48.818;2.322;2023-03-11T10:13:16;100083.63;;;11.36;37.04
22000;BME280;11164;48.818;2.322;2023-03-11T10:15:53;100075.78;;;11.60;32.02
22000;BME280;11164;48.818;2.322;2023-03-11T10:26:04;100091.56;;;12.20;35.40
22000;BME280;11164;48.818;2.322;2023-03-11T10:28:40;100082.41;;;11.96;35.27
22000;BME280;11164;48.818;2.322;2023-03-11T10:31:29;100085.16;;;12.14;32.45
22000;BME280;11164;48.818;2.322;2023-03-11T10:39:14;100085.63;;;12.30;35.58
22000;BME280;11164;48.818;2.322;2023-03-11T10:41:43;100088.97;;;12.07;35.72
22000;BME280;11164;48.818;2.322;2023-03-11T10:44:19;100101.75;;;11.93;35.43
22000;BME280;11164;48.818;2.322;2023-03-11T10:46:48;100095.63;;;12.29;35.66
22000;BME280;11164;48.818;2.322;2023-03-11T10:49:15;100092.03;;;12.54;35.44
22000;BME280;11164;48.818;2.322;2023-03-11T10:51:45;100092.22;;;12.78;35.28
22000;BME280;11164;48.818;2.322;2023-03-11T10:56:53;100100.78;;;12.74;34.86
22000;BME280;11164;48.818;2.322;2023-03-11T11:01:59;100093.25;;;12.40;32.85
22000;BME280;11164;48.818;2.322;2023-03-11T11:04:34;100076.88;;;12.53;34.73
22000;BME280;11164;48.818;2.322;2023-03-11T11:07:29;100089.00;;;13.06;30.66
22000;BME280;11164;48.818;2.322;2023-03-11T11:12:35;100091.31;;;13.02;34.78
22000;BME280;11164;48.818;2.322;2023-03-11T11:15:01;100085.53;;;12.99;35.03
22000;BME280;11164;48.818;2.322;2023-03-11T11:17:30;100073.25;;;12.84;34.87
22000;BME280;11164;48.818;2.322;2023-03-11T11:19:57;100080.28;;;12.85;34.71
22000;BME280;11164;48.818;2.322;2023-03-11T11:22:24;100057.94;;;12.34;35.18
22000;BME280;11164;48.818;2.322;2023-03-11T11:24:52;100068.00;;;12.83;34.90
22000;BME280;11164;48.818;2.322;2023-03-11T11:27:25;100074.53;;;13.42;34.33
22000;BME280;11164;48.818;2.322;2023-03-11T11:32:38;100078.91;;;13.43;34.15
22000;BME280;11164;48.818;2.322;2023-03-11T11:35:07;100083.56;;;13.66;33.90
22000;BME280;11164;48.818;2.322;2023-03-11T11:37:37;100066.63;;;13.71;33.85
22000;BME280;11164;48.818;2.322;2023-03-11T11:42:36;100070.00;;;13.97;33.54
22000;BME280;11164;48.818;2.322;2023-03-11T11:45:18;100074.75;;;13.71;32.27
22000;BME280;11164;48.818;2.322;2023-03-11T11:47:51;100067.81;;;13.75;33.63
22000;BME280;11164;48.818;2.322;2023-03-11T11:50:30;100055.72;;;13.47;31.46
22000;BME280;11164;48.818;2.322;2023-03-11T11:55:40;100046.22;;;13.68;32.73
22000;BME280;11164;48.818;2.322;2023-03-11T11:58:11;100062.16;;;13.35;33.52
22000;BME280;11164;48.818;2.322;2023-03-11T12:01:29;100061.19;;;13.59;32.69
22000;BME280;11164;48.818;2.322;2023-03-11T12:09:19;100056.84;;;13.70;33.01
22000;BME280;11164;48.818;2.322;2023-03-11T12:15:19;100061.28;;;14.18;32.04
22000;BME280;11164;48.818;2.322;2023-03-11T12:17:49;100064.03;;;13.64;33.64
22000;BME280;11164;48.818;2.322;2023-03-11T12:23:18;100050.56;;;13.88;31.75
22000;BME280;11164;48.818;2.322;2023-03-11T12:28:37;100044.72;;;14.55;26.05
22000;BME280;11164;48.818;2.322;2023-03-11T12:31:09;100029.22;;;14.27;32.25
22000;BME280;11164;48.818;2.322;2023-03-11T12:33:42;100038.50;;;14.31;31.77
22000;BME280;11164;48.818;2.322;2023-03-11T12:36:31;100038.38;;;14.61;30.11
22000;BME280;11164;48.818;2.322;2023-03-11T12:38:59;100039.03;;;14.92;32.36
22000;BME280;11164;48.818;2.322;2023-03-11T12:41:33;100032.72;;;14.51;32.61
22000;BME280;11164;48.818;2.322;2023-03-11T12:49:43;100029.38;;;15.13;26.87
22000;BME280;11164;48.818;2.322;2023-03-11T12:54:37;100038.34;;;14.73;32.56
22000;BME280;11164;48.818;2.322;2023-03-11T13:06:11;100020.28;;;14.91;31.44
22000;BME280;11164;48.818;2.322;2023-03-11T13:08:53;100031.91;;;14.51;30.62
22000;BME280;11164;48.818;2.322;2023-03-11T13:14:27;100018.03;;;14.23;28.60
22000;BME280;11164;48.818;2.322;2023-03-11T13:17:41;100017.31;;;14.16;32.45
22000;BME280;11164;48.818;2.322;2023-03-11T13:19:56;100017.31;;;14.16;30.97
22000;BME280;11164;48.818;2.322;2023-03-11T13:28:48;100020.97;;;14.34;29.59
22000;BME280;11164;48.818;2.322;2023-03-11T13:37:23;100011.84;;;14.52;27.30
22000;BME280;11164;48.818;2.322;2023-03-11T13:40:21;100010.31;;;14.56;29.23
22000;BME280;11164;48.818;2.322;2023-03-11T13:42:55;100011.50;;;14.48;31.27
22000;BME280;11164;48.818;2.322;2023-03-11T13:45:28;100012.81;;;14.34;30.22
22000;BME280;11164;48.818;2.322;2023-03-11T13:48:02;100007.53;;;14.03;31.19
22000;BME280;11164;48.818;2.322;2023-03-11T13:50:36;100008.84;;;14.24;31.03
22000;BME280;11164;48.818;2.322;2023-03-11T13:53:08;100008.41;;;14.56;31.17
22000;BME280;11164;48.818;2.322;2023-03-11T13:55:40;100011.38;;;14.43;31.49
22000;BME280;11164;48.818;2.322;2023-03-11T13:58:22;100014.09;;;14.43;29.61
22000;BME280;11164;48.818;2.322;2023-03-11T14:00:53;100020.72;;;14.47;31.34
22000;BME280;11164;48.818;2.322;2023-03-11T14:03:21;100032.16;;;14.25;31.61
22000;BME280;11164;48.818;2.322;2023-03-11T14:05:55;100012.00;;;13.86;31.54
22000;BME280;11164;48.818;2.322;2023-03-11T14:08:29;100026.16;;;14.00;31.59
22000;BME280;11164;48.818;2.322;2023-03-11T14:10:59;100023.66;;;14.10;31.33
22000;BME280;11164;48.818;2.322;2023-03-11T14:13:30;100031.16;;;13.84;31.76
22000;BME280;11164;48.818;2.322;2023-03-11T14:16:07;100015.56;;;13.86;31.42
22000;BME280;11164;48.818;2.322;2023-03-11T14:21:03;100009.97;;;14.40;31.11
22000;BME280;11164;48.818;2.322;2023-03-11T14:23:38;100014.50;;;14.23;30.81
22000;BME280;11164;48.818;2.322;2023-03-11T14:26:12;100012.47;;;14.18;30.42
22000;BME280;11164;48.818;2.322;2023-03-11T14:28:43;100014.00;;;14.26;31.37
22000;BME280;11164;48.818;2.322;2023-03-11T14:42:05;100013.91;;;14.09;30.74
22000;BME280;11164;48.818;2.322;2023-03-11T14:44:36;100018.38;;;14.03;31.19
22000;BME280;11164;48.818;2.322;2023-03-11T14:47:17;100025.44;;;14.16;30.61
22000;BME280;11164;48.818;2.322;2023-03-11T14:49:45;100030.50;;;14.36;31.06
22000;BME280;11164;48.818;2.322;2023-03-11T14:52:34;100027.69;;;14.19;29.81
22000;BME280;11164;48.818;2.322;2023-03-11T14:55:11;100043.47;;;14.34;30.86
22000;BME280;11164;48.818;2.322;2023-03-11T15:00:49;100028.28;;;14.10;30.98
22000;BME280;11164;48.818;2.322;2023-03-11T15:03:32;100027.22;;;14.11;30.26
22000;BME280;11164;48.818;2.322;2023-03-11T15:05:58;100040.06;;;13.92;31.20